Endeavor — WCE5063 — position and weather

sailwx.info

Track history (hours):
 
Tides and Currents Weather Stations Pressure Air Temp Water Temp Dewpoint Dewpoint Depression Visibility Wind Speed Wind Dir Waves Ship Positions

Oceanographic research ship Endeavor (USA)

Detailed information on ship capabilities available from University of Delaware's Ocean Information Center.

Owner: UNIVERSITY OF RHODE ISLAND, Narragansett, RI. More information available from US FCC via Universal Licensing System and Coast Guard Vessel Documentation Center.

Last reported at 2017-Mar-23 05:00 UTC. Time now 2017-Mar-23 20:20 UTC.
Position N 40°30' W 070°36'.

Type: Ship. MMSI: 303471000.

Wind from 340 at 33 knots

Barometer 1025.9 mb
Air temperature -2.3 ° C
Dewpoint -17.2 ° C
Water temperature 6.4 ° C

Date/timePositionNaut miles runAvg speedWind from/ knotsBaromVisibWave heightAir tempDewpointWater temp
2017-Mar-23 05:00N 40°30' W 070°36'0 0.0 340 / 331025.9 -2.3-17.2 6.4
2017-Mar-23 04:00N 40°30' W 070°36'0 0.0 320 / 281025.3 -1.9-14.2 6.5
2017-Mar-23 03:00N 40°30' W 070°36'0 0.0 340 / 311024.3 -1.4-17.4 6.6
2017-Mar-23 02:00N 40°30' W 070°36'0 0.0 330 / 371023.4 -0.9-13.0 6.7
2017-Mar-23 01:00N 40°30' W 070°36'0 0.0 320 / 301022.1 -0.4-14.1 6.8
2017-Mar-23 00:00N 40°30' W 070°36'5 4.6 320 / 321020.8 -0.2-13.7 6.7
2017-Mar-22 23:00N 40°30' W 070°42'0 0.0 330 / 301019.6 -0.2-15.4 6.7
2017-Mar-22 22:00N 40°30' W 070°42'67 2.8 320 / 301017.9 0.4-12.9 6.6
2017-Mar-21 22:10N 41°28' W 071°24'  
2017-Mar-17 04:00N 40°42' W 070°48'8 7.5 300 / 281016.6 7.0
2017-Mar-17 03:00N 40°48' W 070°54'6 6.0 320 / 201015.8 7.4
2017-Mar-17 02:00N 40°54' W 070°54'8 7.5 310 / 271015.1 7.3
2017-Mar-17 01:00N 41°00' W 071°00'8 7.5 300 / 311014.1 7.2
2017-Mar-17 00:00N 41°06' W 071°06'8 7.5 280 / 311013.0 7.1
2017-Mar-16 23:00N 41°12' W 071°12'8 7.5 270 / 321011.7 7.0
2017-Mar-16 22:00N 41°18' W 071°18'8 7.5 280 / 281010.7 6.0
2017-Mar-16 21:00N 41°24' W 071°24'6 6.0 290 / 231010.1 5.4
2017-Mar-16 20:00N 41°30' W 071°24'0 0.0 270 / 141009.6 5.0
2017-Mar-16 19:00N 41°30' W 071°24'0 0.0 330 / 41009.4 4.9
2017-Mar-16 18:00N 41°30' W 071°24'0 0.0 290 / 121009.6 5.4
2017-Mar-16 17:00N 41°30' W 071°24'0 0.0 310 / 131009.8 5.4
2017-Mar-16 16:00N 41°30' W 071°24'0 0.0 290 / 101009.7 5.3
2017-Mar-16 15:00N 41°30' W 071°24'0 0.0 300 / 161010.0 5.0
2017-Mar-16 14:00N 41°30' W 071°24'0 0.0 280 / 71009.9 4.7
2017-Mar-16 13:00N 41°30' W 071°24'0 0.0 280 / 101010.0 4.5
2017-Mar-16 12:00N 41°30' W 071°24'0 0.0 260 / 81009.8 4.8
2017-Mar-16 11:00N 41°30' W 071°24'0 0.0 230 / 51009.2 4.5
2017-Mar-16 10:00N 41°30' W 071°24'0 0.0 230 / 81008.6 4.6
2017-Mar-16 09:00N 41°30' W 071°24'0 0.0 240 / 101008.2 4.4
2017-Mar-16 08:00N 41°30' W 071°24'0 0.0 250 / 121007.8 4.5
2017-Mar-16 07:00N 41°30' W 071°24'0 0.0 250 / 101007.4 4.4
2017-Mar-16 06:00N 41°30' W 071°24'0 0.0 240 / 91006.9 5.1
2017-Mar-16 05:00N 41°30' W 071°24'0 0.0 250 / 51005.8 5.3
2017-Mar-16 04:00N 41°30' W 071°24'0 0.0 310 / 121005.2 5.1
2017-Mar-16 03:00N 41°30' W 071°24'0 0.0 300 / 191004.6 5.1
2017-Mar-16 02:00N 41°30' W 071°24'0 0.0 270 / 61003.8 5.0
2017-Mar-16 01:00N 41°30' W 071°24'0 0.0 300 / 171002.5 4.9
2017-Mar-16 00:00N 41°30' W 071°24'0 0.0 260 / 61001.3 5.0
2017-Mar-15 23:00N 41°30' W 071°24'0 0.0 300 / 111000.0 5.1
2017-Mar-15 22:00N 41°30' W 071°24'0 0.0 290 / 11998.4 5.1
2017-Mar-15 21:00N 41°30' W 071°24'0 0.0 300 / 5997.6 5.0
2017-Mar-15 20:00N 41°30' W 071°24'0 0.0 270 / 9997.4 4.8
2017-Mar-15 19:00N 41°30' W 071°24'0 0.0 260 / 13997.1 4.7
2017-Mar-15 18:00N 41°30' W 071°24'0 0.0 240 / 9996.9 4.9
2017-Mar-15 17:00N 41°30' W 071°24'0 0.0 290 / 12997.1 5.3
2017-Mar-15 16:00N 41°30' W 071°24'0 0.0 240 / 9997.4 5.3
2017-Mar-15 15:00N 41°30' W 071°24'0 0.0 280 / 10997.9 4.8
2017-Mar-15 14:00N 41°30' W 071°24'0 0.0 280 / 12998.0 4.8
2017-Mar-15 13:00N 41°30' W 071°24'0 0.0 230 / 12997.7 4.6
2017-Mar-15 12:00N 41°30' W 071°24'0 0.0 230 / 13997.7 4.2
2017-Mar-15 11:00N 41°30' W 071°24'0 0.0 230 / 8997.7 4.1
2017-Mar-15 10:00N 41°30' W 071°24'0 0.0 290 / 4997.3 4.1
2017-Mar-15 09:00N 41°30' W 071°24'0 0.0 240 / 5996.5 4.1
2017-Mar-15 08:00N 41°30' W 071°24'0 0.0 240 / 8995.6 4.1
2017-Mar-15 07:00N 41°30' W 071°24'0 0.0 250 / 6994.6 4.3
2017-Mar-15 06:00N 41°30' W 071°24'0 0.0 250 / 6993.7 4.5
2017-Mar-15 05:00N 41°30' W 071°24'0 0.0 260 / 11992.3 4.6
2017-Mar-15 04:00N 41°30' W 071°24'0 0.0 280 / 9991.2 4.9
2017-Mar-15 03:00N 41°30' W 071°24'0 0.0 270 / 7989.1 4.9
2017-Mar-15 02:00N 41°30' W 071°24'0 0.0 230 / 8986.6 4.8
2017-Mar-15 01:00N 41°30' W 071°24'0 0.0 220 / 6982.9 4.9
2017-Mar-15 00:00N 41°30' W 071°24'0 0.0 280 / 10979.6 4.8
2017-Mar-14 23:00N 41°30' W 071°24'0 0.0 200 / 16977.4 4.9
2017-Mar-14 22:00N 41°30' W 071°24'0 0.0 190 / 11977.5 4.6
2017-Mar-14 21:00N 41°30' W 071°24'0 0.0 140 / 18978.7 4.7
2017-Mar-14 20:00N 41°30' W 071°24'0 0.0 080 / 22981.5 4.7
2017-Mar-14 19:00N 41°30' W 071°24'0 0.0 040 / 29985.8 4.6
2017-Mar-14 18:00N 41°30' W 071°24'0 0.0 030 / 17990.3 4.5
2017-Mar-14 17:00N 41°30' W 071°24'0 0.0 050 / 23994.8 4.5
2017-Mar-14 16:00N 41°30' W 071°24'0 0.0 040 / 31999.1 4.9
2017-Mar-14 15:00N 41°30' W 071°24'0 0.0 040 / 211005.0 4.9
2017-Mar-14 14:00N 41°30' W 071°24'0 0.0 030 / 201009.9 4.8
2017-Mar-14 13:00N 41°30' W 071°24'0 0.0 040 / 191013.7 5.0
2017-Mar-14 12:00N 41°30' W 071°24'0 0.0 070 / 261016.1 5.1
2017-Mar-14 11:00N 41°30' W 071°24'0 0.0 050 / 171017.4 5.0
2017-Mar-14 10:00N 41°30' W 071°24'0 0.0 050 / 121019.8 5.2
2017-Mar-14 09:00N 41°30' W 071°24'0 0.0 040 / 191021.3 5.0
2017-Mar-14 08:00N 41°30' W 071°24'0 0.0 070 / 111023.1 4.9
2017-Mar-14 07:00N 41°30' W 071°24'0 0.0 090 / 71025.2 4.9
2017-Mar-14 06:00N 41°30' W 071°24'0 0.0 150 / 91026.0 5.2
2017-Mar-14 05:00N 41°30' W 071°24'0 0.0 160 / 141026.4 5.2
2017-Mar-14 04:00N 41°30' W 071°24'0 0.0 250 / 41027.5 5.5
2017-Mar-14 03:00N 41°30' W 071°24'0 0.0 350 / 21027.0 5.6
2017-Mar-14 02:00N 41°30' W 071°24'0 0.0 240 / 21028.3 5.5
2017-Mar-14 01:00N 41°30' W 071°24'0 0.0 230 / 31028.4 5.6
2017-Mar-14 00:00N 41°30' W 071°24'0 0.0 230 / 41028.9 6.1
2017-Mar-13 23:00N 41°30' W 071°24'0 0.0 180 / 61028.7 6.4
2017-Mar-13 22:00N 41°30' W 071°24'0 0.0 180 / 151028.6 6.7
2017-Mar-13 21:00N 41°30' W 071°24'7 7.5 180 / 121028.4 5.5
2017-Mar-13 20:00N 41°24' W 071°18'1312.8 240 / 211030.0 6.7
2017-Mar-13 19:00N 41°12' W 071°12'1110.8 240 / 101030.1 7.3
2017-Mar-13 18:00N 41°06' W 071°00'8 7.5 280 / 101030.6 7.3
2017-Mar-13 17:00N 41°00' W 070°54'1110.9 290 / 111031.5 7.5
2017-Mar-13 16:00N 40°54' W 070°42'8 7.5 310 / 111031.7 7.3
2017-Mar-13 15:00N 40°48' W 070°36'1515.1 320 / 101031.4 6.4
2017-Mar-13 14:00N 40°36' W 070°24'0 0.0 290 / 131031.5 5.8
2017-Mar-13 13:00N 40°36' W 070°24'9 9.1 330 / 151031.1 5.8
2017-Mar-13 12:00N 40°36' W 070°36'0 0.0 320 / 171030.8 6.3
2017-Mar-13 11:00N 40°36' W 070°36'0 0.0 310 / 191029.5 6.4
2017-Mar-13 10:00N 40°36' W 070°36'0 0.0 330 / 181029.0 6.4
2017-Mar-13 09:00N 40°36' W 070°36'0 0.0 310 / 191028.0 6.6
2017-Mar-13 08:00N 40°36' W 070°36'0 0.0 330 / 261027.7 6.6
2017-Mar-13 07:00N 40°36' W 070°36'5 4.6 310 / 231027.7 6.5
2017-Mar-13 06:00N 40°36' W 070°30'0 0.0 330 / 271027.4 6.3
2017-Mar-13 05:00N 40°36' W 070°30'   310 / 241027.2 6.2
Track history (hours):
 
Tides and Currents Weather Stations Pressure Air Temp Water Temp Dewpoint Dewpoint Depression Visibility Wind Speed Wind Dir Waves Ship Positions

Oceanographic research ship Endeavor (USA)

Detailed information on ship capabilities available from University of Delaware's Ocean Information Center.

Owner: UNIVERSITY OF RHODE ISLAND, Narragansett, RI. More information available from US FCC via Universal Licensing System and Coast Guard Vessel Documentation Center.

Last reported at 2017-Mar-23 05:00 UTC. Time now 2017-Mar-23 20:20 UTC.
Position N 40°30' W 070°36'.

Type: Ship. MMSI: 303471000.

Wind from 340 at 33 knots

Barometer 1025.9 mb
Air temperature -2.3 ° C
Dewpoint -17.2 ° C
Water temperature 6.4 ° C

Date/timePositionNaut miles runAvg speedWind from/ knotsBaromVisibWave heightAir tempDewpointWater temp
2017-Mar-23 05:00N 40°30' W 070°36'0 0.0 340 / 331025.9 -2.3-17.2 6.4
2017-Mar-23 04:00N 40°30' W 070°36'0 0.0 320 / 281025.3 -1.9-14.2 6.5
2017-Mar-23 03:00N 40°30' W 070°36'0 0.0 340 / 311024.3 -1.4-17.4 6.6
2017-Mar-23 02:00N 40°30' W 070°36'0 0.0 330 / 371023.4 -0.9-13.0 6.7
2017-Mar-23 01:00N 40°30' W 070°36'0 0.0 320 / 301022.1 -0.4-14.1 6.8
2017-Mar-23 00:00N 40°30' W 070°36'5 4.6 320 / 321020.8 -0.2-13.7 6.7
2017-Mar-22 23:00N 40°30' W 070°42'0 0.0 330 / 301019.6 -0.2-15.4 6.7
2017-Mar-22 22:00N 40°30' W 070°42'67 2.8 320 / 301017.9 0.4-12.9 6.6
2017-Mar-21 22:10N 41°28' W 071°24'  
2017-Mar-17 04:00N 40°42' W 070°48'8 7.5 300 / 281016.6 7.0
2017-Mar-17 03:00N 40°48' W 070°54'6 6.0 320 / 201015.8 7.4
2017-Mar-17 02:00N 40°54' W 070°54'8 7.5 310 / 271015.1 7.3
2017-Mar-17 01:00N 41°00' W 071°00'8 7.5 300 / 311014.1 7.2
2017-Mar-17 00:00N 41°06' W 071°06'8 7.5 280 / 311013.0 7.1
2017-Mar-16 23:00N 41°12' W 071°12'8 7.5 270 / 321011.7 7.0
2017-Mar-16 22:00N 41°18' W 071°18'8 7.5 280 / 281010.7 6.0
2017-Mar-16 21:00N 41°24' W 071°24'6 6.0 290 / 231010.1 5.4
2017-Mar-16 20:00N 41°30' W 071°24'0 0.0 270 / 141009.6 5.0
2017-Mar-16 19:00N 41°30' W 071°24'0 0.0 330 / 41009.4 4.9
2017-Mar-16 18:00N 41°30' W 071°24'0 0.0 290 / 121009.6 5.4
2017-Mar-16 17:00N 41°30' W 071°24'0 0.0 310 / 131009.8 5.4
2017-Mar-16 16:00N 41°30' W 071°24'0 0.0 290 / 101009.7 5.3
2017-Mar-16 15:00N 41°30' W 071°24'0 0.0 300 / 161010.0 5.0
2017-Mar-16 14:00N 41°30' W 071°24'0 0.0 280 / 71009.9 4.7
2017-Mar-16 13:00N 41°30' W 071°24'0 0.0 280 / 101010.0 4.5
2017-Mar-16 12:00N 41°30' W 071°24'0 0.0 260 / 81009.8 4.8
2017-Mar-16 11:00N 41°30' W 071°24'0 0.0 230 / 51009.2 4.5
2017-Mar-16 10:00N 41°30' W 071°24'0 0.0 230 / 81008.6 4.6
2017-Mar-16 09:00N 41°30' W 071°24'0 0.0 240 / 101008.2 4.4
2017-Mar-16 08:00N 41°30' W 071°24'0 0.0 250 / 121007.8 4.5
2017-Mar-16 07:00N 41°30' W 071°24'0 0.0 250 / 101007.4 4.4
2017-Mar-16 06:00N 41°30' W 071°24'0 0.0 240 / 91006.9 5.1
2017-Mar-16 05:00N 41°30' W 071°24'0 0.0 250 / 51005.8 5.3
2017-Mar-16 04:00N 41°30' W 071°24'0 0.0 310 / 121005.2 5.1
2017-Mar-16 03:00N 41°30' W 071°24'0 0.0 300 / 191004.6 5.1
2017-Mar-16 02:00N 41°30' W 071°24'0 0.0 270 / 61003.8 5.0
2017-Mar-16 01:00N 41°30' W 071°24'0 0.0 300 / 171002.5 4.9
2017-Mar-16 00:00N 41°30' W 071°24'0 0.0 260 / 61001.3 5.0
2017-Mar-15 23:00N 41°30' W 071°24'0 0.0 300 / 111000.0 5.1
2017-Mar-15 22:00N 41°30' W 071°24'0 0.0 290 / 11998.4 5.1
2017-Mar-15 21:00N 41°30' W 071°24'0 0.0 300 / 5997.6 5.0
2017-Mar-15 20:00N 41°30' W 071°24'0 0.0 270 / 9997.4 4.8
2017-Mar-15 19:00N 41°30' W 071°24'0 0.0 260 / 13997.1 4.7
2017-Mar-15 18:00N 41°30' W 071°24'0 0.0 240 / 9996.9 4.9
2017-Mar-15 17:00N 41°30' W 071°24'0 0.0 290 / 12997.1 5.3
2017-Mar-15 16:00N 41°30' W 071°24'0 0.0 240 / 9997.4 5.3
2017-Mar-15 15:00N 41°30' W 071°24'0 0.0 280 / 10997.9 4.8
2017-Mar-15 14:00N 41°30' W 071°24'0 0.0 280 / 12998.0 4.8
2017-Mar-15 13:00N 41°30' W 071°24'0 0.0 230 / 12997.7 4.6
2017-Mar-15 12:00N 41°30' W 071°24'0 0.0 230 / 13997.7 4.2
2017-Mar-15 11:00N 41°30' W 071°24'0 0.0 230 / 8997.7 4.1
2017-Mar-15 10:00N 41°30' W 071°24'0 0.0 290 / 4997.3 4.1
2017-Mar-15 09:00N 41°30' W 071°24'0 0.0 240 / 5996.5 4.1
2017-Mar-15 08:00N 41°30' W 071°24'0 0.0 240 / 8995.6 4.1
2017-Mar-15 07:00N 41°30' W 071°24'0 0.0 250 / 6994.6 4.3
2017-Mar-15 06:00N 41°30' W 071°24'0 0.0 250 / 6993.7 4.5
2017-Mar-15 05:00N 41°30' W 071°24'0 0.0 260 / 11992.3 4.6
2017-Mar-15 04:00N 41°30' W 071°24'0 0.0 280 / 9991.2 4.9
2017-Mar-15 03:00N 41°30' W 071°24'0 0.0 270 / 7989.1 4.9
2017-Mar-15 02:00N 41°30' W 071°24'0 0.0 230 / 8986.6 4.8
2017-Mar-15 01:00N 41°30' W 071°24'0 0.0 220 / 6982.9 4.9
2017-Mar-15 00:00N 41°30' W 071°24'0 0.0 280 / 10979.6 4.8
2017-Mar-14 23:00N 41°30' W 071°24'0 0.0 200 / 16977.4 4.9
2017-Mar-14 22:00N 41°30' W 071°24'0 0.0 190 / 11977.5 4.6
2017-Mar-14 21:00N 41°30' W 071°24'0 0.0 140 / 18978.7 4.7
2017-Mar-14 20:00N 41°30' W 071°24'0 0.0 080 / 22981.5 4.7
2017-Mar-14 19:00N 41°30' W 071°24'0 0.0 040 / 29985.8 4.6
2017-Mar-14 18:00N 41°30' W 071°24'0 0.0 030 / 17990.3 4.5
2017-Mar-14 17:00N 41°30' W 071°24'0 0.0 050 / 23994.8 4.5
2017-Mar-14 16:00N 41°30' W 071°24'0 0.0 040 / 31999.1 4.9
2017-Mar-14 15:00N 41°30' W 071°24'0 0.0 040 / 211005.0 4.9
2017-Mar-14 14:00N 41°30' W 071°24'0 0.0 030 / 201009.9 4.8
2017-Mar-14 13:00N 41°30' W 071°24'0 0.0 040 / 191013.7 5.0
2017-Mar-14 12:00N 41°30' W 071°24'0 0.0 070 / 261016.1 5.1
2017-Mar-14 11:00N 41°30' W 071°24'0 0.0 050 / 171017.4 5.0
2017-Mar-14 10:00N 41°30' W 071°24'0 0.0 050 / 121019.8 5.2
2017-Mar-14 09:00N 41°30' W 071°24'0 0.0 040 / 191021.3 5.0
2017-Mar-14 08:00N 41°30' W 071°24'0 0.0 070 / 111023.1 4.9
2017-Mar-14 07:00N 41°30' W 071°24'0 0.0 090 / 71025.2 4.9
2017-Mar-14 06:00N 41°30' W 071°24'0 0.0 150 / 91026.0 5.2
2017-Mar-14 05:00N 41°30' W 071°24'0 0.0 160 / 141026.4 5.2
2017-Mar-14 04:00N 41°30' W 071°24'0 0.0 250 / 41027.5 5.5
2017-Mar-14 03:00N 41°30' W 071°24'0 0.0 350 / 21027.0 5.6
2017-Mar-14 02:00N 41°30' W 071°24'0 0.0 240 / 21028.3 5.5
2017-Mar-14 01:00N 41°30' W 071°24'0 0.0 230 / 31028.4 5.6
2017-Mar-14 00:00N 41°30' W 071°24'0 0.0 230 / 41028.9 6.1
2017-Mar-13 23:00N 41°30' W 071°24'0 0.0 180 / 61028.7 6.4
2017-Mar-13 22:00N 41°30' W 071°24'0 0.0 180 / 151028.6 6.7
2017-Mar-13 21:00N 41°30' W 071°24'7 7.5 180 / 121028.4 5.5
2017-Mar-13 20:00N 41°24' W 071°18'1312.8 240 / 211030.0 6.7
2017-Mar-13 19:00N 41°12' W 071°12'1110.8 240 / 101030.1 7.3
2017-Mar-13 18:00N 41°06' W 071°00'8 7.5 280 / 101030.6 7.3
2017-Mar-13 17:00N 41°00' W 070°54'1110.9 290 / 111031.5 7.5
2017-Mar-13 16:00N 40°54' W 070°42'8 7.5 310 / 111031.7 7.3
2017-Mar-13 15:00N 40°48' W 070°36'1515.1 320 / 101031.4 6.4
2017-Mar-13 14:00N 40°36' W 070°24'0 0.0 290 / 131031.5 5.8
2017-Mar-13 13:00N 40°36' W 070°24'9 9.1 330 / 151031.1 5.8
2017-Mar-13 12:00N 40°36' W 070°36'0 0.0 320 / 171030.8 6.3
2017-Mar-13 11:00N 40°36' W 070°36'0 0.0 310 / 191029.5 6.4
2017-Mar-13 10:00N 40°36' W 070°36'0 0.0 330 / 181029.0 6.4
2017-Mar-13 09:00N 40°36' W 070°36'0 0.0 310 / 191028.0 6.6
2017-Mar-13 08:00N 40°36' W 070°36'0 0.0 330 / 261027.7 6.6
2017-Mar-13 07:00N 40°36' W 070°36'5 4.6 310 / 231027.7 6.5
2017-Mar-13 06:00N 40°36' W 070°30'0 0.0 330 / 271027.4 6.3
2017-Mar-13 05:00N 40°36' W 070°30'   310 / 241027.2 6.2

Dump ship's entire track history